sensor_id;sensor_type;location;lat;lon;timestamp;P1;durP1;ratioP1;P2;durP2;ratioP2
16906;SDS011;8570;52.380;4.654;2023-12-28T00:01:04;23.23;;;4.78;;
16906;SDS011;8570;52.380;4.654;2023-12-28T00:06:06;25.00;;;4.40;;
16906;SDS011;8570;52.380;4.654;2023-12-28T00:11:10;23.50;;;4.45;;
16906;SDS011;8570;52.380;4.654;2023-12-28T00:16:14;21.67;;;4.80;;
16906;SDS011;8570;52.380;4.654;2023-12-28T00:21:16;18.83;;;4.10;;
16906;SDS011;8570;52.380;4.654;2023-12-28T00:26:19;22.50;;;4.40;;
16906;SDS011;8570;52.380;4.654;2023-12-28T00:31:28;25.65;;;4.70;;
16906;SDS011;8570;52.380;4.654;2023-12-28T00:36:32;23.67;;;5.20;;
16906;SDS011;8570;52.380;4.654;2023-12-28T00:41:36;20.42;;;4.28;;
16906;SDS011;8570;52.380;4.654;2023-12-28T00:46:37;25.63;;;4.53;;
16906;SDS011;8570;52.380;4.654;2023-12-28T00:51:43;26.27;;;4.38;;
16906;SDS011;8570;52.380;4.654;2023-12-28T00:56:47;19.95;;;4.45;;
16906;SDS011;8570;52.380;4.654;2023-12-28T01:01:49;19.77;;;4.90;;
16906;SDS011;8570;52.380;4.654;2023-12-28T01:06:52;22.70;;;4.15;;
16906;SDS011;8570;52.380;4.654;2023-12-28T01:11:56;17.88;;;4.55;;
16906;SDS011;8570;52.380;4.654;2023-12-28T01:16:58;22.90;;;4.70;;
16906;SDS011;8570;52.380;4.654;2023-12-28T01:22:01;21.25;;;3.80;;
16906;SDS011;8570;52.380;4.654;2023-12-28T01:27:05;16.77;;;3.65;;
16906;SDS011;8570;52.380;4.654;2023-12-28T01:32:06;20.95;;;4.25;;
16906;SDS011;8570;52.380;4.654;2023-12-28T01:37:08;15.45;;;3.53;;
16906;SDS011;8570;52.380;4.654;2023-12-28T01:42:11;17.08;;;3.47;;
16906;SDS011;8570;52.380;4.654;2023-12-28T01:47:13;15.40;;;3.20;;
16906;SDS011;8570;52.380;4.654;2023-12-28T01:52:15;11.65;;;3.00;;
16906;SDS011;8570;52.380;4.654;2023-12-28T01:57:21;12.38;;;3.28;;
16906;SDS011;8570;52.380;4.654;2023-12-28T02:02:23;14.82;;;2.92;;
16906;SDS011;8570;52.380;4.654;2023-12-28T02:07:25;19.52;;;3.13;;
16906;SDS011;8570;52.380;4.654;2023-12-28T02:12:33;21.20;;;3.50;;
16906;SDS011;8570;52.380;4.654;2023-12-28T02:17:36;15.88;;;2.95;;
16906;SDS011;8570;52.380;4.654;2023-12-28T02:22:47;10.63;;;2.70;;
16906;SDS011;8570;52.380;4.654;2023-12-28T02:27:50;14.18;;;3.28;;
16906;SDS011;8570;52.380;4.654;2023-12-28T02:32:58;12.88;;;3.00;;
16906;SDS011;8570;52.380;4.654;2023-12-28T02:38:14;21.17;;;3.83;;
16906;SDS011;8570;52.380;4.654;2023-12-28T02:43:18;24.40;;;3.70;;
16906;SDS011;8570;52.380;4.654;2023-12-28T02:48:20;14.02;;;3.50;;
16906;SDS011;8570;52.380;4.654;2023-12-28T02:53:22;15.82;;;3.80;;
16906;SDS011;8570;52.380;4.654;2023-12-28T02:58:29;19.65;;;3.78;;
16906;SDS011;8570;52.380;4.654;2023-12-28T03:03:31;21.73;;;3.88;;
16906;SDS011;8570;52.380;4.654;2023-12-28T03:08:33;20.27;;;3.10;;
16906;SDS011;8570;52.380;4.654;2023-12-28T03:13:36;13.52;;;3.28;;
16906;SDS011;8570;52.380;4.654;2023-12-28T03:18:38;14.65;;;3.38;;
16906;SDS011;8570;52.380;4.654;2023-12-28T03:23:40;18.95;;;3.50;;
16906;SDS011;8570;52.380;4.654;2023-12-28T03:28:43;17.60;;;3.80;;
16906;SDS011;8570;52.380;4.654;2023-12-28T03:33:45;23.42;;;3.65;;
16906;SDS011;8570;52.380;4.654;2023-12-28T03:38:47;17.45;;;3.78;;
16906;SDS011;8570;52.380;4.654;2023-12-28T03:43:50;24.60;;;4.80;;
16906;SDS011;8570;52.380;4.654;2023-12-28T03:48:55;16.73;;;2.83;;
16906;SDS011;8570;52.380;4.654;2023-12-28T03:53:57;22.38;;;3.38;;
16906;SDS011;8570;52.380;4.654;2023-12-28T03:59:02;26.08;;;4.05;;
16906;SDS011;8570;52.380;4.654;2023-12-28T04:04:04;17.92;;;3.78;;
16906;SDS011;8570;52.380;4.654;2023-12-28T04:09:06;13.43;;;3.30;;
16906;SDS011;8570;52.380;4.654;2023-12-28T04:14:09;12.88;;;3.70;;
16906;SDS011;8570;52.380;4.654;2023-12-28T04:19:11;19.70;;;3.60;;
16906;SDS011;8570;52.380;4.654;2023-12-28T04:24:17;20.83;;;4.15;;
16906;SDS011;8570;52.380;4.654;2023-12-28T04:29:20;18.70;;;4.32;;
16906;SDS011;8570;52.380;4.654;2023-12-28T04:34:22;16.42;;;3.53;;
16906;SDS011;8570;52.380;4.654;2023-12-28T04:39:24;23.00;;;4.22;;
16906;SDS011;8570;52.380;4.654;2023-12-28T04:44:27;21.50;;;3.90;;
16906;SDS011;8570;52.380;4.654;2023-12-28T04:49:29;25.33;;;3.78;;
16906;SDS011;8570;52.380;4.654;2023-12-28T04:54:31;28.88;;;3.83;;
16906;SDS011;8570;52.380;4.654;2023-12-28T04:59:37;21.00;;;3.90;;
16906;SDS011;8570;52.380;4.654;2023-12-28T05:04:39;22.85;;;4.65;;
16906;SDS011;8570;52.380;4.654;2023-12-28T05:09:41;24.00;;;4.25;;
16906;SDS011;8570;52.380;4.654;2023-12-28T05:14:45;21.73;;;4.63;;
16906;SDS011;8570;52.380;4.654;2023-12-28T05:19:47;25.05;;;4.60;;
16906;SDS011;8570;52.380;4.654;2023-12-28T05:24:56;21.40;;;4.82;;
16906;SDS011;8570;52.380;4.654;2023-12-28T05:30:02;29.95;;;5.22;;
16906;SDS011;8570;52.380;4.654;2023-12-28T05:35:05;26.85;;;4.85;;
16906;SDS011;8570;52.380;4.654;2023-12-28T05:40:09;21.77;;;4.78;;
16906;SDS011;8570;52.380;4.654;2023-12-28T05:45:13;27.52;;;6.03;;
16906;SDS011;8570;52.380;4.654;2023-12-28T05:50:15;27.10;;;4.45;;
16906;SDS011;8570;52.380;4.654;2023-12-28T05:55:16;25.08;;;5.53;;
16906;SDS011;8570;52.380;4.654;2023-12-28T06:00:20;34.13;;;5.78;;
16906;SDS011;8570;52.380;4.654;2023-12-28T06:05:22;31.70;;;5.45;;
16906;SDS011;8570;52.380;4.654;2023-12-28T06:10:24;28.38;;;5.35;;
16906;SDS011;8570;52.380;4.654;2023-12-28T06:15:27;35.15;;;6.35;;
16906;SDS011;8570;52.380;4.654;2023-12-28T06:20:29;30.75;;;5.85;;
16906;SDS011;8570;52.380;4.654;2023-12-28T06:25:31;33.08;;;7.05;;
16906;SDS011;8570;52.380;4.654;2023-12-28T06:30:36;43.42;;;6.28;;
16906;SDS011;8570;52.380;4.654;2023-12-28T06:35:39;36.47;;;7.32;;
16906;SDS011;8570;52.380;4.654;2023-12-28T06:40:41;37.83;;;6.60;;
16906;SDS011;8570;52.380;4.654;2023-12-28T06:45:44;35.55;;;6.45;;
16906;SDS011;8570;52.380;4.654;2023-12-28T06:50:47;36.45;;;6.53;;
16906;SDS011;8570;52.380;4.654;2023-12-28T06:55:49;37.22;;;7.05;;
16906;SDS011;8570;52.380;4.654;2023-12-28T07:00:53;44.20;;;7.70;;
16906;SDS011;8570;52.380;4.654;2023-12-28T07:05:57;35.58;;;7.40;;
16906;SDS011;8570;52.380;4.654;2023-12-28T07:11:05;36.60;;;6.30;;
16906;SDS011;8570;52.380;4.654;2023-12-28T07:16:12;33.78;;;7.75;;
16906;SDS011;8570;52.380;4.654;2023-12-28T07:21:14;48.47;;;8.43;;
16906;SDS011;8570;52.380;4.654;2023-12-28T07:26:16;35.58;;;5.80;;
16906;SDS011;8570;52.380;4.654;2023-12-28T07:31:25;43.42;;;7.53;;
16906;SDS011;8570;52.380;4.654;2023-12-28T07:36:28;36.67;;;6.45;;
16906;SDS011;8570;52.380;4.654;2023-12-28T07:41:30;46.08;;;7.03;;
16906;SDS011;8570;52.380;4.654;2023-12-28T07:46:38;29.05;;;5.53;;
16906;SDS011;8570;52.380;4.654;2023-12-28T07:51:42;45.20;;;7.85;;
16906;SDS011;8570;52.380;4.654;2023-12-28T07:56:44;30.27;;;5.75;;
16906;SDS011;8570;52.380;4.654;2023-12-28T08:01:47;32.42;;;5.32;;
16906;SDS011;8570;52.380;4.654;2023-12-28T08:06:52;31.02;;;6.10;;
16906;SDS011;8570;52.380;4.654;2023-12-28T08:11:57;32.95;;;5.97;;
16906;SDS011;8570;52.380;4.654;2023-12-28T08:17:00;28.23;;;5.60;;
16906;SDS011;8570;52.380;4.654;2023-12-28T08:22:04;28.13;;;5.90;;
16906;SDS011;8570;52.380;4.654;2023-12-28T08:27:06;30.17;;;5.80;;
16906;SDS011;8570;52.380;4.654;2023-12-28T08:32:14;34.65;;;6.60;;
16906;SDS011;8570;52.380;4.654;2023-12-28T08:37:17;33.88;;;6.03;;
16906;SDS011;8570;52.380;4.654;2023-12-28T08:42:19;32.42;;;6.40;;
16906;SDS011;8570;52.380;4.654;2023-12-28T08:47:22;31.33;;;5.72;;
16906;SDS011;8570;52.380;4.654;2023-12-28T08:52:24;29.35;;;5.22;;
16906;SDS011;8570;52.380;4.654;2023-12-28T08:57:26;34.88;;;6.30;;
16906;SDS011;8570;52.380;4.654;2023-12-28T09:02:32;26.08;;;5.38;;
16906;SDS011;8570;52.380;4.654;2023-12-28T09:07:39;24.52;;;5.63;;
16906;SDS011;8570;52.380;4.654;2023-12-28T09:12:43;34.88;;;5.95;;
16906;SDS011;8570;52.380;4.654;2023-12-28T09:17:46;27.00;;;5.35;;
16906;SDS011;8570;52.380;4.654;2023-12-28T09:22:48;32.10;;;6.28;;
16906;SDS011;8570;52.380;4.654;2023-12-28T09:28:02;28.92;;;5.60;;
16906;SDS011;8570;52.380;4.654;2023-12-28T09:33:07;28.85;;;5.22;;
16906;SDS011;8570;52.380;4.654;2023-12-28T09:38:11;30.13;;;6.15;;
16906;SDS011;8570;52.380;4.654;2023-12-28T09:43:19;32.88;;;6.38;;
16906;SDS011;8570;52.380;4.654;2023-12-28T09:48:25;30.15;;;5.22;;
16906;SDS011;8570;52.380;4.654;2023-12-28T09:53:28;28.50;;;5.78;;
16906;SDS011;8570;52.380;4.654;2023-12-28T09:58:30;27.00;;;4.63;;
16906;SDS011;8570;52.380;4.654;2023-12-28T10:03:35;33.78;;;6.18;;
16906;SDS011;8570;52.380;4.654;2023-12-28T10:08:44;29.83;;;6.35;;
16906;SDS011;8570;52.380;4.654;2023-12-28T10:13:48;27.40;;;5.25;;
16906;SDS011;8570;52.380;4.654;2023-12-28T10:18:51;28.65;;;6.00;;
16906;SDS011;8570;52.380;4.654;2023-12-28T10:23:53;34.15;;;5.35;;
16906;SDS011;8570;52.380;4.654;2023-12-28T10:28:56;29.63;;;5.63;;
16906;SDS011;8570;52.380;4.654;2023-12-28T10:34:01;31.80;;;6.53;;
16906;SDS011;8570;52.380;4.654;2023-12-28T10:39:03;28.27;;;6.32;;
16906;SDS011;8570;52.380;4.654;2023-12-28T10:44:09;30.80;;;5.63;;
16906;SDS011;8570;52.380;4.654;2023-12-28T10:49:20;33.55;;;6.28;;
16906;SDS011;8570;52.380;4.654;2023-12-28T10:54:28;25.58;;;5.55;;
16906;SDS011;8570;52.380;4.654;2023-12-28T10:59:44;35.90;;;7.60;;
16906;SDS011;8570;52.380;4.654;2023-12-28T11:04:56;32.40;;;5.93;;
16906;SDS011;8570;52.380;4.654;2023-12-28T11:09:59;27.55;;;6.55;;
16906;SDS011;8570;52.380;4.654;2023-12-28T11:15:05;37.75;;;6.40;;
16906;SDS011;8570;52.380;4.654;2023-12-28T11:20:10;33.15;;;7.15;;
16906;SDS011;8570;52.380;4.654;2023-12-28T11:25:16;27.33;;;5.88;;
16906;SDS011;8570;52.380;4.654;2023-12-28T11:30:18;35.47;;;6.22;;
16906;SDS011;8570;52.380;4.654;2023-12-28T11:35:22;33.78;;;6.88;;
16906;SDS011;8570;52.380;4.654;2023-12-28T11:40:24;27.50;;;5.55;;
16906;SDS011;8570;52.380;4.654;2023-12-28T11:45:26;35.30;;;6.88;;
16906;SDS011;8570;52.380;4.654;2023-12-28T11:50:30;33.00;;;5.68;;
16906;SDS011;8570;52.380;4.654;2023-12-28T11:55:32;32.28;;;6.38;;
16906;SDS011;8570;52.380;4.654;2023-12-28T12:00:34;28.75;;;4.80;;
16906;SDS011;8570;52.380;4.654;2023-12-28T12:05:38;23.42;;;5.47;;
16906;SDS011;8570;52.380;4.654;2023-12-28T12:10:40;28.63;;;5.75;;
16906;SDS011;8570;52.380;4.654;2023-12-28T12:15:42;26.50;;;6.18;;
16906;SDS011;8570;52.380;4.654;2023-12-28T12:20:45;33.70;;;6.05;;
16906;SDS011;8570;52.380;4.654;2023-12-28T12:25:47;24.48;;;5.80;;
16906;SDS011;8570;52.380;4.654;2023-12-28T12:30:49;29.88;;;6.57;;
16906;SDS011;8570;52.380;4.654;2023-12-28T12:35:53;34.45;;;6.30;;
16906;SDS011;8570;52.380;4.654;2023-12-28T12:40:55;27.77;;;5.90;;
16906;SDS011;8570;52.380;4.654;2023-12-28T12:45:57;27.05;;;6.00;;
16906;SDS011;8570;52.380;4.654;2023-12-28T12:51:02;28.02;;;5.30;;
16906;SDS011;8570;52.380;4.654;2023-12-28T12:56:05;25.50;;;5.00;;
16906;SDS011;8570;52.380;4.654;2023-12-28T13:01:11;30.90;;;5.60;;
16906;SDS011;8570;52.380;4.654;2023-12-28T13:06:14;30.00;;;6.00;;
16906;SDS011;8570;52.380;4.654;2023-12-28T13:11:16;31.23;;;5.65;;
16906;SDS011;8570;52.380;4.654;2023-12-28T13:16:23;27.88;;;4.65;;
16906;SDS011;8570;52.380;4.654;2023-12-28T13:21:26;28.27;;;5.05;;
16906;SDS011;8570;52.380;4.654;2023-12-28T13:26:28;29.52;;;5.68;;
16906;SDS011;8570;52.380;4.654;2023-12-28T13:31:30;31.75;;;5.43;;
16906;SDS011;8570;52.380;4.654;2023-12-28T13:36:33;25.98;;;5.10;;
16906;SDS011;8570;52.380;4.654;2023-12-28T13:41:35;20.27;;;4.97;;
16906;SDS011;8570;52.380;4.654;2023-12-28T13:46:37;20.83;;;4.20;;
16906;SDS011;8570;52.380;4.654;2023-12-28T13:51:40;21.90;;;4.28;;
16906;SDS011;8570;52.380;4.654;2023-12-28T13:56:42;20.15;;;4.80;;
16906;SDS011;8570;52.380;4.654;2023-12-28T14:01:45;20.05;;;4.75;;
16906;SDS011;8570;52.380;4.654;2023-12-28T14:06:48;23.73;;;5.18;;
16906;SDS011;8570;52.380;4.654;2023-12-28T14:11:50;23.00;;;5.10;;
16906;SDS011;8570;52.380;4.654;2023-12-28T14:16:52;19.60;;;4.45;;
16906;SDS011;8570;52.380;4.654;2023-12-28T14:21:55;25.92;;;5.45;;
16906;SDS011;8570;52.380;4.654;2023-12-28T14:26:58;20.00;;;4.57;;
16906;SDS011;8570;52.380;4.654;2023-12-28T14:32:00;26.67;;;5.07;;
16906;SDS011;8570;52.380;4.654;2023-12-28T14:37:04;35.05;;;5.10;;
16906;SDS011;8570;52.380;4.654;2023-12-28T14:42:07;21.58;;;4.43;;
16906;SDS011;8570;52.380;4.654;2023-12-28T14:47:09;23.13;;;4.43;;
16906;SDS011;8570;52.380;4.654;2023-12-28T14:52:12;22.20;;;5.53;;
16906;SDS011;8570;52.380;4.654;2023-12-28T14:57:14;25.42;;;4.10;;
16906;SDS011;8570;52.380;4.654;2023-12-28T15:02:16;23.92;;;4.93;;
16906;SDS011;8570;52.380;4.654;2023-12-28T15:07:20;23.13;;;4.80;;
16906;SDS011;8570;52.380;4.654;2023-12-28T15:12:22;27.00;;;5.57;;
16906;SDS011;8570;52.380;4.654;2023-12-28T15:17:24;27.95;;;4.97;;
16906;SDS011;8570;52.380;4.654;2023-12-28T15:22:28;26.05;;;4.90;;
16906;SDS011;8570;52.380;4.654;2023-12-28T15:27:30;23.48;;;4.72;;
16906;SDS011;8570;52.380;4.654;2023-12-28T15:32:32;27.55;;;5.03;;
16906;SDS011;8570;52.380;4.654;2023-12-28T15:37:35;20.88;;;4.53;;
16906;SDS011;8570;52.380;4.654;2023-12-28T15:42:37;24.90;;;4.47;;
16906;SDS011;8570;52.380;4.654;2023-12-28T15:47:39;29.25;;;4.57;;
16906;SDS011;8570;52.380;4.654;2023-12-28T15:52:42;27.80;;;4.97;;
16906;SDS011;8570;52.380;4.654;2023-12-28T15:57:44;27.05;;;5.25;;
16906;SDS011;8570;52.380;4.654;2023-12-28T16:02:46;23.80;;;4.78;;
16906;SDS011;8570;52.380;4.654;2023-12-28T16:07:49;29.55;;;5.63;;
16906;SDS011;8570;52.380;4.654;2023-12-28T16:12:51;21.48;;;4.68;;
16906;SDS011;8570;52.380;4.654;2023-12-28T16:17:52;25.23;;;4.93;;
16906;SDS011;8570;52.380;4.654;2023-12-28T16:22:58;19.25;;;4.65;;
16906;SDS011;8570;52.380;4.654;2023-12-28T16:28:00;21.25;;;5.00;;
16906;SDS011;8570;52.380;4.654;2023-12-28T16:33:03;27.35;;;5.05;;
16906;SDS011;8570;52.380;4.654;2023-12-28T16:38:06;20.85;;;4.38;;
16906;SDS011;8570;52.380;4.654;2023-12-28T16:43:08;18.95;;;4.30;;
16906;SDS011;8570;52.380;4.654;2023-12-28T16:48:10;19.67;;;4.72;;
16906;SDS011;8570;52.380;4.654;2023-12-28T16:53:13;22.50;;;4.00;;
16906;SDS011;8570;52.380;4.654;2023-12-28T16:58:15;19.95;;;4.88;;
16906;SDS011;8570;52.380;4.654;2023-12-28T17:03:17;14.43;;;3.83;;
16906;SDS011;8570;52.380;4.654;2023-12-28T17:08:20;21.85;;;4.57;;
16906;SDS011;8570;52.380;4.654;2023-12-28T17:13:22;31.83;;;5.07;;
16906;SDS011;8570;52.380;4.654;2023-12-28T17:18:25;18.30;;;4.43;;
16906;SDS011;8570;52.380;4.654;2023-12-28T17:23:30;21.70;;;4.35;;
16906;SDS011;8570;52.380;4.654;2023-12-28T17:28:40;22.05;;;4.20;;
16906;SDS011;8570;52.380;4.654;2023-12-28T17:33:47;22.40;;;4.93;;
16906;SDS011;8570;52.380;4.654;2023-12-28T17:38:51;23.05;;;5.32;;
16906;SDS011;8570;52.380;4.654;2023-12-28T17:43:55;22.70;;;4.40;;
16906;SDS011;8570;52.380;4.654;2023-12-28T17:48:58;22.42;;;3.83;;
16906;SDS011;8570;52.380;4.654;2023-12-28T17:54:05;23.58;;;4.25;;
16906;SDS011;8570;52.380;4.654;2023-12-28T17:59:07;18.33;;;3.72;;
16906;SDS011;8570;52.380;4.654;2023-12-28T18:04:09;22.50;;;4.70;;
16906;SDS011;8570;52.380;4.654;2023-12-28T18:09:12;15.65;;;3.88;;
16906;SDS011;8570;52.380;4.654;2023-12-28T18:14:16;19.15;;;3.60;;
16906;SDS011;8570;52.380;4.654;2023-12-28T18:19:20;17.67;;;3.95;;
16906;SDS011;8570;52.380;4.654;2023-12-28T18:24:23;30.70;;;4.70;;
16906;SDS011;8570;52.380;4.654;2023-12-28T18:29:25;26.05;;;4.03;;
16906;SDS011;8570;52.380;4.654;2023-12-28T18:34:27;20.38;;;4.10;;
16906;SDS011;8570;52.380;4.654;2023-12-28T18:39:30;29.13;;;3.97;;
16906;SDS011;8570;52.380;4.654;2023-12-28T18:44:37;22.58;;;4.70;;
16906;SDS011;8570;52.380;4.654;2023-12-28T18:49:39;24.02;;;4.22;;
16906;SDS011;8570;52.380;4.654;2023-12-28T18:54:42;21.40;;;4.90;;
16906;SDS011;8570;52.380;4.654;2023-12-28T18:59:44;20.75;;;4.47;;
16906;SDS011;8570;52.380;4.654;2023-12-28T19:04:46;17.85;;;4.18;;
16906;SDS011;8570;52.380;4.654;2023-12-28T19:09:49;18.55;;;4.40;;
16906;SDS011;8570;52.380;4.654;2023-12-28T19:14:51;20.50;;;4.03;;
16906;SDS011;8570;52.380;4.654;2023-12-28T19:19:52;22.23;;;4.82;;
16906;SDS011;8570;52.380;4.654;2023-12-28T19:24:56;22.60;;;4.03;;
16906;SDS011;8570;52.380;4.654;2023-12-28T19:29:58;21.05;;;4.07;;
16906;SDS011;8570;52.380;4.654;2023-12-28T19:35:01;24.50;;;3.95;;
16906;SDS011;8570;52.380;4.654;2023-12-28T19:40:05;20.77;;;4.22;;
16906;SDS011;8570;52.380;4.654;2023-12-28T19:45:09;15.55;;;4.05;;
16906;SDS011;8570;52.380;4.654;2023-12-28T19:50:11;19.25;;;4.65;;
16906;SDS011;8570;52.380;4.654;2023-12-28T19:55:15;15.38;;;3.70;;
16906;SDS011;8570;52.380;4.654;2023-12-28T20:00:17;21.20;;;4.20;;
16906;SDS011;8570;52.380;4.654;2023-12-28T20:05:20;17.80;;;4.18;;
16906;SDS011;8570;52.380;4.654;2023-12-28T20:10:23;17.05;;;4.15;;
16906;SDS011;8570;52.380;4.654;2023-12-28T20:15:25;15.63;;;3.97;;
16906;SDS011;8570;52.380;4.654;2023-12-28T20:20:27;15.95;;;4.05;;
16906;SDS011;8570;52.380;4.654;2023-12-28T20:25:30;15.60;;;4.05;;
16906;SDS011;8570;52.380;4.654;2023-12-28T20:30:33;24.48;;;3.83;;
16906;SDS011;8570;52.380;4.654;2023-12-28T20:35:35;15.80;;;3.75;;
16906;SDS011;8570;52.380;4.654;2023-12-28T20:40:38;16.15;;;3.95;;
16906;SDS011;8570;52.380;4.654;2023-12-28T20:45:40;17.92;;;3.47;;
16906;SDS011;8570;52.380;4.654;2023-12-28T20:50:42;18.15;;;3.58;;
16906;SDS011;8570;52.380;4.654;2023-12-28T20:55:45;18.77;;;3.88;;
16906;SDS011;8570;52.380;4.654;2023-12-28T21:00:47;18.77;;;3.78;;
16906;SDS011;8570;52.380;4.654;2023-12-28T21:05:49;19.05;;;3.80;;
16906;SDS011;8570;52.380;4.654;2023-12-28T21:10:52;18.98;;;3.88;;
16906;SDS011;8570;52.380;4.654;2023-12-28T21:15:57;16.10;;;3.85;;
16906;SDS011;8570;52.380;4.654;2023-12-28T21:21:01;19.52;;;4.18;;
16906;SDS011;8570;52.380;4.654;2023-12-28T21:26:04;17.45;;;3.65;;
16906;SDS011;8570;52.380;4.654;2023-12-28T21:31:06;15.45;;;3.50;;
16906;SDS011;8570;52.380;4.654;2023-12-28T21:36:08;15.32;;;3.25;;
16906;SDS011;8570;52.380;4.654;2023-12-28T21:41:12;17.80;;;3.63;;
16906;SDS011;8570;52.380;4.654;2023-12-28T21:46:14;21.08;;;3.33;;
16906;SDS011;8570;52.380;4.654;2023-12-28T21:51:16;26.88;;;3.92;;
16906;SDS011;8570;52.380;4.654;2023-12-28T21:56:19;20.55;;;4.20;;
16906;SDS011;8570;52.380;4.654;2023-12-28T22:01:25;24.10;;;3.90;;
16906;SDS011;8570;52.380;4.654;2023-12-28T22:06:27;18.10;;;3.28;;
16906;SDS011;8570;52.380;4.654;2023-12-28T22:11:30;28.25;;;3.85;;
16906;SDS011;8570;52.380;4.654;2023-12-28T22:16:32;14.77;;;3.30;;
16906;SDS011;8570;52.380;4.654;2023-12-28T22:21:34;21.33;;;4.18;;
16906;SDS011;8570;52.380;4.654;2023-12-28T22:26:37;17.63;;;4.45;;
16906;SDS011;8570;52.380;4.654;2023-12-28T22:31:42;19.45;;;4.20;;
16906;SDS011;8570;52.380;4.654;2023-12-28T22:36:46;22.75;;;4.15;;
16906;SDS011;8570;52.380;4.654;2023-12-28T22:41:50;21.55;;;4.57;;
16906;SDS011;8570;52.380;4.654;2023-12-28T22:46:52;24.05;;;3.97;;
16906;SDS011;8570;52.380;4.654;2023-12-28T22:51:57;19.70;;;3.95;;
16906;SDS011;8570;52.380;4.654;2023-12-28T22:57:00;23.05;;;4.32;;
16906;SDS011;8570;52.380;4.654;2023-12-28T23:02:02;20.42;;;3.80;;
16906;SDS011;8570;52.380;4.654;2023-12-28T23:07:04;10.55;;;3.05;;
16906;SDS011;8570;52.380;4.654;2023-12-28T23:12:07;16.58;;;3.00;;
16906;SDS011;8570;52.380;4.654;2023-12-28T23:29:07;32.03;;;5.63;;
16906;SDS011;8570;52.380;4.654;2023-12-28T23:46:07;41.97;;;6.75;;
16906;SDS011;8570;52.380;4.654;2023-12-28T23:51:14;46.95;;;7.45;;
16906;SDS011;8570;52.380;4.654;2023-12-28T23:56:43;43.20;;;7.28;;
